PWSweather.com
Personal Weather Stations
Station Observations
PENICUIKWS
PenicuikGB

PenicuikGB

Lat: 55.830932, Lon: -3.224533000000065

Elevation: 166

Station Type: Fine Offset

http://weather.penicuik.org

High Low Average
Temperature 60.8°F16.0°C 45.0°F7.2°C 52.7°F11.5°C
Dew Point 53.8°F12.1°C 43.9°F6.6°C 48.1°F8.9°C
Winds 5.5 mph 8.9 kmh 0.4 mph 0.6 kmh 3.0 mph SW4.8 kmh SW
Wind Gusts 9.8 mph15.8 kmh 0.7 mph1.1 kmh 5.0 mph8.0 kmh
Humidity 97% 65% 85%
Pressure 30.10 in1019.3 mb 29.96 in1014.6 mb -
Precipitation 0.05 in1.3 mm - -
Hour Temp Dew Point Humidity Winds Wind Gusts Pressure Precip Precip Rate Daily Precip Total
12:00 AM 45.1°F7.3°C 44.1°F6.7°C 96% 0.7 mph W1.1 kmh W 1.6 mph2.6 kmh 30.10 in1019.3 mb 0.00 in0.0 mm 0.00 in0.0 mm 0.00 in0.0 mm
12:15 AM 45.0°F7.2°C 43.9°F6.6°C 96% 0.4 mph NW0.6 kmh NW 0.7 mph1.1 kmh 30.09 in1019.0 mb 0.00 in0.0 mm 0.00 in0.0 mm 0.00 in0.0 mm
12:30 AM 45.1°F7.3°C 44.3°F6.8°C 97% 0.7 mph WNW1.1 kmh WNW 2.2 mph3.5 kmh 30.09 in1019.0 mb 0.00 in0.0 mm 0.00 in0.0 mm 0.00 in0.0 mm
01:00 AM 45.7°F7.6°C 44.9°F7.2°C 97% 1.1 mph WNW1.8 kmh WNW 1.6 mph2.6 kmh 30.08 in1018.6 mb 0.00 in0.0 mm 0.00 in0.0 mm 0.00 in0.0 mm
01:15 AM 46.2°F7.9°C 45.4°F7.4°C 97% 1.3 mph S2.1 kmh S 2.2 mph3.5 kmh 30.07 in1018.3 mb 0.00 in0.0 mm 0.00 in0.0 mm 0.00 in0.0 mm
01:30 AM 47.1°F8.4°C 46.3°F7.9°C 97% 2.5 mph NNW4.0 kmh NNW 6.0 mph9.7 kmh 30.07 in1018.3 mb 0.00 in0.0 mm 0.00 in0.0 mm 0.00 in0.0 mm
01:45 AM 48.0°F8.9°C 47.2°F8.4°C 97% 1.7 mph N2.7 kmh N 3.8 mph6.1 kmh 30.06 in1017.9 mb 0.00 in0.0 mm 0.00 in0.0 mm 0.00 in0.0 mm
02:00 AM 48.2°F9.0°C 46.8°F8.2°C 95% 2.1 mph N3.4 kmh N 3.1 mph5.0 kmh 30.06 in1017.9 mb 0.00 in0.0 mm 0.00 in0.0 mm 0.00 in0.0 mm
02:15 AM 47.7°F8.7°C 46.3°F7.9°C 95% 1.2 mph NW1.9 kmh NW 3.1 mph5.0 kmh 30.05 in1017.6 mb 0.00 in0.0 mm 0.00 in0.0 mm 0.00 in0.0 mm
02:30 AM 47.5°F8.6°C 46.1°F7.8°C 95% 2.5 mph N4.0 kmh N 4.5 mph7.2 kmh 30.05 in1017.6 mb 0.00 in0.0 mm 0.00 in0.0 mm 0.00 in0.0 mm
02:45 AM 47.7°F8.7°C 46.0°F7.8°C 94% 2.0 mph NNE3.2 kmh NNE 3.8 mph6.1 kmh 30.05 in1017.6 mb 0.00 in0.0 mm 0.00 in0.0 mm 0.00 in0.0 mm
03:00 AM 47.8°F8.8°C 46.2°F7.9°C 94% 2.8 mph NE4.5 kmh NE 4.5 mph7.2 kmh 30.05 in1017.6 mb 0.00 in0.0 mm 0.00 in0.0 mm 0.00 in0.0 mm
03:15 AM 47.7°F8.7°C 45.7°F7.6°C 93% 2.1 mph NW3.4 kmh NW 3.8 mph6.1 kmh 30.04 in1017.3 mb 0.00 in0.0 mm 0.00 in0.0 mm 0.00 in0.0 mm
03:30 AM 47.3°F8.5°C 45.4°F7.4°C 93% 1.4 mph N2.3 kmh N 2.2 mph3.5 kmh 30.04 in1017.3 mb 0.00 in0.0 mm 0.00 in0.0 mm 0.00 in0.0 mm
03:45 AM 47.7°F8.7°C 45.7°F7.6°C 93% 2.3 mph W3.7 kmh W 5.4 mph8.7 kmh 30.04 in1017.3 mb 0.00 in0.0 mm 0.00 in0.0 mm 0.00 in0.0 mm
04:15 AM 47.8°F8.8°C 45.6°F7.6°C 92% 1.4 mph NW2.3 kmh NW 2.2 mph3.5 kmh 30.03 in1016.9 mb 0.00 in0.0 mm 0.00 in0.0 mm 0.00 in0.0 mm
04:45 AM 48.7°F9.3°C 46.2°F7.9°C 91% 1.9 mph NW3.1 kmh NW 3.1 mph5.0 kmh 30.02 in1016.6 mb 0.00 in0.0 mm 0.00 in0.0 mm 0.00 in0.0 mm
05:00 AM 48.7°F9.3°C 45.9°F7.7°C 90% 2.4 mph NE3.9 kmh NE 3.8 mph6.1 kmh 30.02 in1016.6 mb 0.00 in0.0 mm 0.00 in0.0 mm 0.00 in0.0 mm
05:30 AM 48.9°F9.4°C 46.1°F7.8°C 90% 2.6 mph NW4.2 kmh NW 5.4 mph8.7 kmh 30.01 in1016.3 mb 0.00 in0.0 mm 0.00 in0.0 mm 0.00 in0.0 mm
05:45 AM 49.5°F9.7°C 46.7°F8.2°C 90% 2.6 mph N4.2 kmh N 4.5 mph7.2 kmh 30.02 in1016.6 mb 0.00 in0.0 mm 0.00 in0.0 mm 0.00 in0.0 mm
06:15 AM 50.4°F10.2°C 46.3°F7.9°C 86% 3.0 mph SE4.8 kmh SE 5.4 mph8.7 kmh 30.01 in1016.3 mb 0.00 in0.0 mm 0.00 in0.0 mm 0.00 in0.0 mm
06:30 AM 50.4°F10.2°C 46.6°F8.1°C 87% 2.2 mph N3.5 kmh N 5.4 mph8.7 kmh 30.01 in1016.3 mb 0.00 in0.0 mm 0.00 in0.0 mm 0.00 in0.0 mm
06:45 AM 50.4°F10.2°C 46.9°F8.3°C 88% 2.0 mph NNW3.2 kmh NNW 3.1 mph5.0 kmh 30.01 in1016.3 mb 0.00 in0.0 mm 0.00 in0.0 mm 0.00 in0.0 mm
07:00 AM 50.4°F10.2°C 46.9°F8.3°C 88% 2.3 mph WSW3.7 kmh WSW 3.8 mph6.1 kmh 30.01 in1016.3 mb 0.00 in0.0 mm 0.00 in0.0 mm 0.00 in0.0 mm
07:15 AM 50.4°F10.2°C 47.2°F8.4°C 89% 2.9 mph SSW4.7 kmh SSW 4.5 mph7.2 kmh 30.01 in1016.3 mb 0.00 in0.0 mm 0.00 in0.0 mm 0.00 in0.0 mm
07:30 AM 50.4°F10.2°C 47.5°F8.6°C 90% 3.0 mph NE4.8 kmh NE 6.0 mph9.7 kmh 30.01 in1016.3 mb 0.00 in0.0 mm 0.00 in0.0 mm 0.00 in0.0 mm
07:45 AM 50.4°F10.2°C 47.8°F8.8°C 91% 2.2 mph NNW3.5 kmh NNW 3.1 mph5.0 kmh 30.02 in1016.6 mb 0.00 in0.0 mm 0.00 in0.0 mm 0.00 in0.0 mm
08:00 AM 50.4°F10.2°C 48.1°F8.9°C 92% 2.1 mph NNW3.4 kmh NNW 3.1 mph5.0 kmh 30.02 in1016.6 mb 0.00 in0.0 mm 0.00 in0.0 mm 0.00 in0.0 mm
08:15 AM 51.3°F10.7°C 49.0°F9.4°C 92% 2.4 mph NW3.9 kmh NW 3.8 mph6.1 kmh 30.02 in1016.6 mb 0.00 in0.0 mm 0.00 in0.0 mm 0.00 in0.0 mm
08:45 AM 51.3°F10.7°C 49.0°F9.4°C 92% 2.9 mph NE4.7 kmh NE 6.9 mph11.1 kmh 30.02 in1016.6 mb 0.01 in0.3 mm 0.02 in0.5 mm 0.01 in0.3 mm
09:00 AM 52.0°F11.1°C 49.7°F9.8°C 92% 2.5 mph NW4.0 kmh NW 4.5 mph7.2 kmh 30.01 in1016.3 mb 0.01 in0.3 mm 0.00 in0.0 mm 0.01 in0.3 mm
09:15 AM 52.5°F11.4°C 50.3°F10.2°C 92% 2.5 mph NW4.0 kmh NW 3.8 mph6.1 kmh 30.02 in1016.6 mb 0.02 in0.5 mm 0.04 in1.0 mm 0.02 in0.5 mm
09:30 AM 52.9°F11.6°C 50.6°F10.3°C 92% 3.2 mph SSE5.1 kmh SSE 5.4 mph8.7 kmh 30.02 in1016.6 mb 0.01 in0.3 mm 0.00 in0.0 mm 0.02 in0.5 mm
09:45 AM 55.2°F12.9°C 52.3°F11.3°C 90% 3.1 mph E5.0 kmh E 3.8 mph6.1 kmh 30.01 in1016.3 mb 0.01 in0.3 mm 0.00 in0.0 mm 0.02 in0.5 mm
10:00 AM 58.3°F14.6°C 53.8°F12.1°C 85% 3.0 mph SW4.8 kmh SW 4.5 mph7.2 kmh 30.02 in1016.6 mb 0.01 in0.3 mm 0.00 in0.0 mm 0.02 in0.5 mm
10:15 AM 57.6°F14.2°C 51.1°F10.6°C 79% 4.3 mph W6.9 kmh W 6.9 mph11.1 kmh 30.02 in1016.6 mb 0.00 in0.0 mm 0.00 in0.0 mm 0.02 in0.5 mm
10:30 AM 58.5°F14.7°C 52.0°F11.1°C 79% 4.4 mph NW7.1 kmh NW 9.2 mph14.8 kmh 30.02 in1016.6 mb 0.00 in0.0 mm 0.00 in0.0 mm 0.02 in0.5 mm
10:45 AM 60.8°F16.0°C 51.4°F10.8°C 71% 5.0 mph W8.0 kmh W 7.6 mph12.2 kmh 30.02 in1016.6 mb 0.00 in0.0 mm 0.00 in0.0 mm 0.02 in0.5 mm
11:00 AM 59.9°F15.5°C 48.1°F8.9°C 65% 5.5 mph S8.9 kmh S 9.8 mph15.8 kmh 30.02 in1016.6 mb 0.00 in0.0 mm 0.00 in0.0 mm 0.02 in0.5 mm
11:15 AM 59.7°F15.4°C 48.4°F9.1°C 66% 5.1 mph SW8.2 kmh SW 8.3 mph13.4 kmh 30.02 in1016.6 mb 0.00 in0.0 mm 0.00 in0.0 mm 0.02 in0.5 mm
11:30 AM 57.9°F14.4°C 47.4°F8.6°C 68% 3.7 mph W6.0 kmh W 5.4 mph8.7 kmh 30.02 in1016.6 mb 0.00 in0.0 mm 0.00 in0.0 mm 0.02 in0.5 mm
11:45 AM 57.0°F13.9°C 48.5°F9.2°C 73% 3.6 mph NW5.8 kmh NW 6.0 mph9.7 kmh 30.03 in1016.9 mb 0.00 in0.0 mm 0.00 in0.0 mm 0.02 in0.5 mm
12:00 PM 56.8°F13.8°C 48.7°F9.3°C 74% 3.1 mph N5.0 kmh N 5.4 mph8.7 kmh 30.03 in1016.9 mb 0.00 in0.0 mm 0.00 in0.0 mm 0.02 in0.5 mm
12:15 PM 60.3°F15.7°C 50.8°F10.4°C 71% 3.9 mph SE6.3 kmh SE 6.9 mph11.1 kmh 30.03 in1016.9 mb 0.00 in0.0 mm 0.00 in0.0 mm 0.02 in0.5 mm
12:30 PM 59.5°F15.3°C 47.8°F8.8°C 65% 4.6 mph SW7.4 kmh SW 6.9 mph11.1 kmh 30.02 in1016.6 mb 0.00 in0.0 mm 0.00 in0.0 mm 0.02 in0.5 mm
12:45 PM 57.2°F14.0°C 47.5°F8.6°C 70% 3.9 mph SW6.3 kmh SW 5.4 mph8.7 kmh 30.02 in1016.6 mb 0.00 in0.0 mm 0.00 in0.0 mm 0.02 in0.5 mm
01:00 PM 57.2°F14.0°C 47.9°F8.8°C 71% 2.6 mph SSW4.2 kmh SSW 5.4 mph8.7 kmh 30.02 in1016.6 mb 0.00 in0.0 mm 0.00 in0.0 mm 0.02 in0.5 mm
01:30 PM 55.8°F13.2°C 49.0°F9.4°C 78% 4.3 mph W6.9 kmh W 5.4 mph8.7 kmh 30.02 in1016.6 mb 0.00 in0.0 mm 0.00 in0.0 mm 0.02 in0.5 mm
01:45 PM 58.3°F14.6°C 50.4°F10.2°C 75% 4.1 mph NW6.6 kmh NW 6.0 mph9.7 kmh 30.02 in1016.6 mb 0.00 in0.0 mm 0.00 in0.0 mm 0.02 in0.5 mm
02:00 PM 58.5°F14.7°C 49.5°F9.7°C 72% 4.2 mph SW6.8 kmh SW 9.8 mph15.8 kmh 30.01 in1016.3 mb 0.00 in0.0 mm 0.00 in0.0 mm 0.02 in0.5 mm
02:15 PM 57.6°F14.2°C 48.6°F9.2°C 72% 3.1 mph SSW5.0 kmh SSW 5.4 mph8.7 kmh 30.02 in1016.6 mb 0.00 in0.0 mm 0.00 in0.0 mm 0.02 in0.5 mm
02:30 PM 57.6°F14.2°C 47.9°F8.8°C 70% 5.4 mph NW8.7 kmh NW 8.3 mph13.4 kmh 30.01 in1016.3 mb 0.00 in0.0 mm 0.00 in0.0 mm 0.02 in0.5 mm
02:45 PM 57.6°F14.2°C 47.5°F8.6°C 69% 4.0 mph SSW6.4 kmh SSW 6.0 mph9.7 kmh 30.02 in1016.6 mb 0.00 in0.0 mm 0.00 in0.0 mm 0.02 in0.5 mm
03:15 PM 58.3°F14.6°C 48.6°F9.2°C 70% 5.4 mph SW8.7 kmh SW 9.8 mph15.8 kmh 30.01 in1016.3 mb 0.00 in0.0 mm 0.00 in0.0 mm 0.02 in0.5 mm
03:30 PM 58.3°F14.6°C 48.6°F9.2°C 70% 4.4 mph NE7.1 kmh NE 9.8 mph15.8 kmh 30.00 in1015.9 mb 0.00 in0.0 mm 0.00 in0.0 mm 0.02 in0.5 mm
03:45 PM 58.3°F14.6°C 48.2°F9.0°C 69% 4.9 mph ENE7.9 kmh ENE 7.6 mph12.2 kmh 30.00 in1015.9 mb 0.00 in0.0 mm 0.00 in0.0 mm 0.02 in0.5 mm
04:00 PM 57.6°F14.2°C 47.9°F8.8°C 70% 4.3 mph SSW6.9 kmh SSW 9.2 mph14.8 kmh 30.00 in1015.9 mb 0.00 in0.0 mm 0.00 in0.0 mm 0.02 in0.5 mm
04:30 PM 56.7°F13.7°C 48.8°F9.3°C 75% 2.7 mph S4.3 kmh S 3.8 mph6.1 kmh 30.00 in1015.9 mb 0.00 in0.0 mm 0.00 in0.0 mm 0.02 in0.5 mm
04:45 PM 57.0°F13.9°C 48.8°F9.3°C 74% 3.5 mph WSW5.6 kmh WSW 6.0 mph9.7 kmh 29.99 in1015.6 mb 0.00 in0.0 mm 0.00 in0.0 mm 0.02 in0.5 mm
05:00 PM 56.1°F13.4°C 48.0°F8.9°C 74% 3.2 mph WNW5.1 kmh WNW 8.3 mph13.4 kmh 29.99 in1015.6 mb 0.01 in0.3 mm 0.01 in0.3 mm 0.04 in1.0 mm
05:15 PM 56.3°F13.5°C 48.1°F8.9°C 74% 3.2 mph SSW5.1 kmh SSW 4.5 mph7.2 kmh 29.99 in1015.6 mb 0.01 in0.3 mm 0.00 in0.0 mm 0.04 in1.0 mm
05:30 PM 55.6°F13.1°C 48.1°F8.9°C 76% 2.8 mph WNW4.5 kmh WNW 6.0 mph9.7 kmh 30.00 in1015.9 mb 0.01 in0.3 mm 0.00 in0.0 mm 0.04 in1.0 mm
05:45 PM 54.9°F12.7°C 48.1°F8.9°C 78% 3.0 mph WNW4.8 kmh WNW 4.5 mph7.2 kmh 30.00 in1015.9 mb 0.01 in0.3 mm 0.00 in0.0 mm 0.04 in1.0 mm
06:00 PM 54.1°F12.3°C 47.8°F8.8°C 79% 3.4 mph SW5.5 kmh SW 4.5 mph7.2 kmh 30.00 in1015.9 mb 0.00 in0.0 mm 0.00 in0.0 mm 0.04 in1.0 mm
06:15 PM 54.0°F12.2°C 48.3°F9.1°C 81% 1.9 mph ESE3.1 kmh ESE 3.1 mph5.0 kmh 29.99 in1015.6 mb 0.00 in0.0 mm 0.00 in0.0 mm 0.04 in1.0 mm
06:30 PM 53.1°F11.7°C 48.0°F8.9°C 83% 2.7 mph WSW4.3 kmh WSW 3.8 mph6.1 kmh 30.00 in1015.9 mb 0.00 in0.0 mm 0.00 in0.0 mm 0.04 in1.0 mm
06:45 PM 52.5°F11.4°C 48.5°F9.2°C 86% 2.2 mph WSW3.5 kmh WSW 3.8 mph6.1 kmh 30.00 in1015.9 mb 0.00 in0.0 mm 0.00 in0.0 mm 0.04 in1.0 mm
07:00 PM 52.0°F11.1°C 48.2°F9.0°C 87% 2.6 mph WSW4.2 kmh WSW 4.5 mph7.2 kmh 30.00 in1015.9 mb 0.00 in0.0 mm 0.00 in0.0 mm 0.04 in1.0 mm
07:30 PM 51.4°F10.8°C 48.6°F9.2°C 90% 2.2 mph WSW3.5 kmh WSW 3.1 mph5.0 kmh 30.00 in1015.9 mb 0.00 in0.0 mm 0.00 in0.0 mm 0.04 in1.0 mm
07:45 PM 51.4°F10.8°C 48.9°F9.4°C 91% 2.3 mph SSW3.7 kmh SSW 3.8 mph6.1 kmh 30.00 in1015.9 mb 0.00 in0.0 mm 0.00 in0.0 mm 0.04 in1.0 mm
08:00 PM 51.4°F10.8°C 49.2°F9.6°C 92% 1.9 mph N3.1 kmh N 4.5 mph7.2 kmh 29.99 in1015.6 mb 0.00 in0.0 mm 0.00 in0.0 mm 0.04 in1.0 mm
08:15 PM 51.4°F10.8°C 49.2°F9.6°C 92% 1.7 mph E2.7 kmh E 3.1 mph5.0 kmh 29.98 in1015.2 mb 0.00 in0.0 mm 0.00 in0.0 mm 0.04 in1.0 mm
08:30 PM 51.3°F10.7°C 49.3°F9.6°C 93% 2.1 mph W3.4 kmh W 4.5 mph7.2 kmh 29.98 in1015.2 mb 0.00 in0.0 mm 0.00 in0.0 mm 0.04 in1.0 mm
08:45 PM 51.6°F10.9°C 49.7°F9.8°C 93% 2.1 mph WNW3.4 kmh WNW 3.1 mph5.0 kmh 29.99 in1015.6 mb 0.00 in0.0 mm 0.00 in0.0 mm 0.04 in1.0 mm
09:15 PM 51.4°F10.8°C 49.2°F9.6°C 92% 2.5 mph NW4.0 kmh NW 3.8 mph6.1 kmh 29.98 in1015.2 mb 0.00 in0.0 mm 0.00 in0.0 mm 0.04 in1.0 mm
09:30 PM 51.4°F10.8°C 49.2°F9.6°C 92% 2.1 mph NW3.4 kmh NW 2.2 mph3.5 kmh 29.98 in1015.2 mb 0.00 in0.0 mm 0.00 in0.0 mm 0.04 in1.0 mm
09:45 PM 51.8°F11.0°C 49.3°F9.6°C 91% 2.1 mph N3.4 kmh N 3.8 mph6.1 kmh 29.97 in1014.9 mb 0.00 in0.0 mm 0.00 in0.0 mm 0.04 in1.0 mm
10:00 PM 51.6°F10.9°C 49.4°F9.7°C 92% 1.9 mph N3.1 kmh N 3.8 mph6.1 kmh 29.97 in1014.9 mb 0.00 in0.0 mm 0.00 in0.0 mm 0.04 in1.0 mm
10:15 PM 51.3°F10.7°C 49.3°F9.6°C 93% 2.6 mph SW4.2 kmh SW 5.4 mph8.7 kmh 29.98 in1015.2 mb 0.00 in0.0 mm 0.00 in0.0 mm 0.04 in1.0 mm
10:30 PM 50.4°F10.2°C 48.4°F9.1°C 93% 1.6 mph NW2.6 kmh NW 3.8 mph6.1 kmh 29.96 in1014.6 mb 0.01 in0.3 mm 0.04 in1.0 mm 0.05 in1.3 mm
11:00 PM 51.3°F10.7°C 49.9°F9.9°C 95% 2.0 mph NW3.2 kmh NW 3.1 mph5.0 kmh 29.96 in1014.6 mb 0.01 in0.3 mm 0.00 in0.0 mm 0.04 in1.0 mm
11:15 PM 51.3°F10.7°C 50.2°F10.1°C 96% 1.9 mph NNE3.1 kmh NNE 3.1 mph5.0 kmh 29.96 in1014.6 mb 0.02 in0.5 mm 0.04 in1.0 mm 0.01 in0.3 mm
11:30 PM 51.4°F10.8°C 50.3°F10.2°C 96% 3.5 mph WSW5.6 kmh WSW 5.4 mph8.7 kmh 29.96 in1014.6 mb 0.01 in0.3 mm 0.00 in0.0 mm 0.01 in0.3 mm
11:45 PM 51.3°F10.7°C 50.2°F10.1°C 96% 3.3 mph S5.3 kmh S 5.4 mph8.7 kmh 29.96 in1014.6 mb 0.02 in0.5 mm 0.04 in1.0 mm 0.02 in0.5 mm